createdAt,value
2022-08-26T00:03:37.684Z,23.80
2022-08-26T00:09:40.405Z,23.80
2022-08-26T00:15:42.877Z,23.80
2022-08-26T00:21:45.590Z,23.60
2022-08-26T00:27:48.160Z,23.70
2022-08-26T00:33:50.452Z,23.80
2022-08-26T00:39:53.163Z,23.70
2022-08-26T00:46:02.456Z,23.60
2022-08-26T00:52:09.902Z,23.50
2022-08-26T00:58:14.249Z,23.60
2022-08-26T01:04:18.812Z,23.50
2022-08-26T01:10:28.075Z,23.50
2022-08-26T01:16:30.806Z,23.50
2022-08-26T01:22:55.736Z,23.50
2022-08-26T01:29:00.580Z,23.40
2022-08-26T01:35:03.609Z,23.40
2022-08-26T01:41:12.464Z,23.40
2022-08-26T01:47:22.142Z,23.40
2022-08-26T01:53:25.578Z,23.40
2022-08-26T01:59:29.701Z,23.40
2022-08-26T02:05:32.030Z,23.40
2022-08-26T02:11:35.015Z,23.40
2022-08-26T02:17:43.626Z,23.50
2022-08-26T02:23:45.948Z,23.40
2022-08-26T02:29:53.153Z,23.40
2022-08-26T02:35:55.604Z,23.30
2022-08-26T02:41:59.484Z,23.30
2022-08-26T02:48:11.644Z,23.30
2022-08-26T02:54:14.416Z,23.30
2022-08-26T03:00:17.389Z,23.30
2022-08-26T03:06:19.823Z,23.20
2022-08-26T03:12:26.039Z,23.20
2022-08-26T03:18:28.880Z,23.30
2022-08-26T03:24:31.744Z,23.30
2022-08-26T03:30:45.026Z,23.20
2022-08-26T03:36:47.862Z,23.20
2022-08-26T03:42:51.301Z,23.10
2022-08-26T03:48:53.689Z,23.10
2022-08-26T03:54:56.225Z,23.00
2022-08-26T04:00:58.387Z,23.00
2022-08-26T04:07:00.711Z,23.00
2022-08-26T04:13:02.838Z,23.10
2022-08-26T04:19:06.811Z,23.20
2022-08-26T04:25:09.707Z,23.30
2022-08-26T04:31:14.923Z,23.40
2022-08-26T04:37:17.509Z,23.50
2022-08-26T04:43:19.780Z,23.60
2022-08-26T04:49:21.830Z,23.60
2022-08-26T04:55:25.227Z,23.70
2022-08-26T05:01:44.347Z,24.00
2022-08-26T05:07:46.703Z,24.40
2022-08-26T05:13:50.856Z,26.40
2022-08-26T05:19:53.264Z,28.80
2022-08-26T05:25:59.192Z,30.40
2022-08-26T05:32:02.944Z,31.80
2022-08-26T05:38:12.416Z,33.10
2022-08-26T05:44:20.562Z,33.50
2022-08-26T05:50:25.933Z,33.00
2022-08-26T05:56:28.674Z,35.20
2022-08-26T06:02:30.905Z,36.20
2022-08-26T06:08:33.384Z,37.00
2022-08-26T06:14:36.516Z,37.70
2022-08-26T06:20:43.925Z,38.50
2022-08-26T06:27:02.316Z,38.20
2022-08-26T06:33:04.773Z,39.90
2022-08-26T06:39:10.389Z,40.30
2022-08-26T06:45:12.819Z,41.10
2022-08-26T06:51:18.925Z,41.20
2022-08-26T06:57:21.067Z,41.20
2022-08-26T07:03:23.615Z,41.10
2022-08-26T07:09:28.818Z,42.20
2022-08-26T07:15:31.653Z,41.30
2022-08-26T07:21:34.324Z,41.50
2022-08-26T07:27:38.456Z,41.90
2022-08-26T07:33:41.666Z,42.90
2022-08-26T07:39:44.663Z,41.90
2022-08-26T07:45:47.232Z,43.30
2022-08-26T07:51:50.516Z,42.50
2022-08-26T07:57:53.273Z,41.80
2022-08-26T08:03:56.882Z,42.80
2022-08-26T08:09:59.488Z,43.90
2022-08-26T08:16:02.269Z,44.10
2022-08-26T08:22:06.889Z,44.80
2022-08-26T08:28:19.776Z,44.40
2022-08-26T08:34:24.945Z,43.90
2022-08-26T08:40:28.481Z,43.70
2022-08-26T08:46:31.809Z,44.00
2022-08-26T08:52:39.601Z,44.10
2022-08-26T08:58:52.121Z,44.00
2022-08-26T09:05:09.275Z,43.30
2022-08-26T09:11:19.497Z,43.20
2022-08-26T09:17:33.742Z,43.70
2022-08-26T09:23:41.780Z,43.50
2022-08-26T09:29:45.906Z,43.50
2022-08-26T09:36:24.783Z,44.10
2022-08-26T09:42:27.146Z,43.20
2022-08-26T09:48:38.146Z,43.20
2022-08-26T09:54:46.014Z,42.70
2022-08-26T10:00:57.353Z,43.40
2022-08-26T10:07:06.433Z,42.70
2022-08-26T10:13:33.004Z,43.50
2022-08-26T10:19:57.206Z,42.80
2022-08-26T10:26:14.182Z,42.60
2022-08-26T10:32:41.377Z,42.10
2022-08-26T10:38:44.730Z,42.40
2022-08-26T10:44:51.120Z,42.30
2022-08-26T10:50:53.612Z,42.20
2022-08-26T10:57:10.865Z,42.10
2022-08-26T11:03:21.881Z,41.50
2022-08-26T11:09:47.189Z,41.80
2022-08-26T11:15:52.738Z,41.50
2022-08-26T11:22:47.397Z,40.40
2022-08-26T11:28:50.716Z,39.10
2022-08-26T11:34:58.448Z,39.10
2022-08-26T11:41:09.317Z,39.10
2022-08-26T11:47:15.346Z,38.70
2022-08-26T11:53:19.296Z,39.00
2022-08-26T12:05:59.046Z,39.70
2022-08-26T12:12:13.879Z,39.50
2022-08-26T12:18:29.681Z,38.10
2022-08-26T12:24:32.678Z,38.00
2022-08-26T12:30:35.369Z,38.30
2022-08-26T12:36:46.839Z,39.80
2022-08-26T12:42:49.180Z,39.60
2022-08-26T12:48:51.655Z,40.30
2022-08-26T12:55:00.124Z,41.10
2022-08-26T13:01:06.759Z,41.00
2022-08-26T13:07:24.694Z,39.40
2022-08-26T13:13:27.215Z,39.00
2022-08-26T13:19:32.228Z,39.20
2022-08-26T13:25:34.629Z,38.10
2022-08-26T13:31:40.326Z,37.20
2022-08-26T13:37:42.867Z,36.30
2022-08-26T13:43:45.423Z,35.70
2022-08-26T13:49:47.641Z,34.90
2022-08-26T13:55:50.339Z,34.20
2022-08-26T14:01:52.697Z,33.90
2022-08-26T14:07:57.583Z,33.80
2022-08-26T14:14:00.321Z,33.60
2022-08-26T14:20:02.787Z,33.70
2022-08-26T14:26:08.511Z,33.70
2022-08-26T14:32:24.083Z,33.70
2022-08-26T14:38:26.767Z,33.50
2022-08-26T14:44:32.311Z,33.30
2022-08-26T14:50:34.687Z,33.00
2022-08-26T14:56:39.888Z,32.90
2022-08-26T15:02:42.968Z,32.70
2022-08-26T15:08:45.362Z,32.70
2022-08-26T15:14:48.717Z,32.60
2022-08-26T15:20:50.909Z,32.60
2022-08-26T15:26:54.090Z,32.50
2022-08-26T15:32:56.280Z,32.40
2022-08-26T15:39:00.648Z,32.30
2022-08-26T15:45:03.122Z,32.20
2022-08-26T15:51:06.810Z,32.10
2022-08-26T15:57:11.527Z,32.00
2022-08-26T16:03:14.918Z,31.80
2022-08-26T16:09:17.300Z,31.70
2022-08-26T16:15:20.038Z,31.50
2022-08-26T16:21:24.999Z,31.40
2022-08-26T16:27:27.798Z,31.30
2022-08-26T16:33:30.547Z,31.10
2022-08-26T16:39:32.978Z,30.90
2022-08-26T16:45:42.414Z,30.80
2022-08-26T16:51:44.711Z,30.60
2022-08-26T16:57:47.628Z,30.40
2022-08-26T17:03:50.890Z,30.20
2022-08-26T17:09:53.295Z,30.00
2022-08-26T17:15:58.487Z,29.80
2022-08-26T17:22:02.472Z,29.60
2022-08-26T17:28:13.298Z,29.40
2022-08-26T17:34:15.828Z,29.30
2022-08-26T17:40:20.991Z,29.20
2022-08-26T17:46:23.797Z,29.20
2022-08-26T17:52:26.157Z,29.00
2022-08-26T17:58:28.563Z,28.90
2022-08-26T18:04:32.223Z,28.90
2022-08-26T18:10:35.368Z,28.70
2022-08-26T18:16:42.009Z,28.60
2022-08-26T18:22:44.857Z,28.40
2022-08-26T18:28:47.224Z,28.20
2022-08-26T18:34:49.743Z,28.10
2022-08-26T18:40:52.578Z,27.90
2022-08-26T18:46:54.775Z,27.80
2022-08-26T18:52:57.102Z,27.60
2022-08-26T18:59:00.064Z,27.50
2022-08-26T19:05:02.239Z,27.40
2022-08-26T19:11:04.620Z,27.20
2022-08-26T19:17:09.455Z,27.00
2022-08-26T19:23:30.358Z,26.90
2022-08-26T19:29:35.882Z,26.80
2022-08-26T19:35:38.274Z,26.70
2022-08-26T19:41:40.662Z,26.60
2022-08-26T19:47:43.187Z,26.40
2022-08-26T19:53:46.183Z,26.30
2022-08-26T19:59:48.305Z,26.20
2022-08-26T20:05:50.414Z,26.10
2022-08-26T20:11:52.794Z,26.00
2022-08-26T20:17:58.915Z,25.90
2022-08-26T20:24:08.782Z,25.90
2022-08-26T20:30:11.731Z,25.90
2022-08-26T20:36:15.381Z,25.80
2022-08-26T20:42:27.389Z,25.80
2022-08-26T20:48:30.278Z,25.70
2022-08-26T20:54:32.401Z,25.70
2022-08-26T21:00:34.910Z,25.70
2022-08-26T21:06:38.599Z,25.60
2022-08-26T21:12:41.071Z,25.60
2022-08-26T21:18:43.626Z,25.50
2022-08-26T21:24:45.812Z,25.50
2022-08-26T21:30:48.164Z,25.50
2022-08-26T21:36:50.317Z,25.40
2022-08-26T21:42:52.568Z,25.30
2022-08-26T21:49:01.263Z,25.20
2022-08-26T21:55:08.848Z,25.10
2022-08-26T22:01:13.642Z,25.00
2022-08-26T22:07:18.413Z,24.90
2022-08-26T22:13:26.605Z,24.90
2022-08-26T22:19:32.007Z,24.70
2022-08-26T22:25:36.542Z,24.50
2022-08-26T22:31:39.058Z,24.40
2022-08-26T22:37:41.190Z,24.40
2022-08-26T22:43:43.539Z,24.30
2022-08-26T22:49:46.980Z,24.20
2022-08-26T22:55:49.826Z,24.10
2022-08-26T23:01:52.075Z,24.00
2022-08-26T23:07:54.338Z,24.00
2022-08-26T23:13:56.506Z,23.80
2022-08-26T23:19:58.881Z,23.70
2022-08-26T23:26:04.454Z,23.60
2022-08-26T23:32:08.441Z,23.60
2022-08-26T23:38:11.696Z,23.60
2022-08-26T23:44:17.099Z,23.60
2022-08-26T23:50:22.605Z,23.50
2022-08-26T23:56:25.183Z,23.40
